Time;durP1;ratioP1;P1;durP2;ratioP2;P2;SDS_P1;SDS_P2;PMS_P1;PMS_P2;Temp;Humidity;BMP_temperature;BMP_pressure;BME280_temperature;BME280_humidity;BME280_pressure;Samples;Min_cycle;Max_cycle;Signal;HPM_P1;HPM_P2
2021/10/04 18:14:45;;;;;;;4.60;1.13;;;13.70;91.60;;;;;;5118983;27;20391;-70
2021/10/04 18:17:11;;;;;;;4.03;1.23;;;13.60;92.30;;;;;;5126490;27;20047;-70
2021/10/04 18:19:36;;;;;;;6.77;1.20;;;13.60;92.80;;;;;;5125480;27;20051;-70
2021/10/04 18:22:02;;;;;;;6.23;1.77;;;13.60;93.10;;;;;;5125630;27;20047;-72
2021/10/04 18:24:28;;;;;;;6.43;1.00;;;13.60;93.40;;;;;;5125703;28;20138;-70
2021/10/04 18:26:55;;;;;;;5.67;0.93;;;13.60;93.50;;;;;;5126043;28;20115;-69
2021/10/04 18:29:21;;;;;;;4.67;1.10;;;13.60;93.40;;;;;;5110148;28;20060;-71
2021/10/04 18:31:47;;;;;;;4.17;1.20;;;13.70;93.50;;;;;;5126935;27;20124;-68
2021/10/04 18:34:12;;;;;;;4.17;1.10;;;13.70;93.50;;;;;;5128976;27;20062;-70
2021/10/04 18:36:38;;;;;;;5.60;1.57;;;13.70;93.40;;;;;;5126978;28;20074;-67
2021/10/04 18:39:05;;;;;;;11.00;3.07;;;13.70;93.30;;;;;;5128491;27;20423;-70
2021/10/04 18:41:32;;;;;;;9.17;1.10;;;13.70;93.30;;;;;;5127731;27;20395;-71
2021/10/04 18:43:57;;;;;;;4.90;1.07;;;13.80;93.20;;;;;;5127755;27;20499;-73
2021/10/04 18:46:23;;;;;;;2.90;1.27;;;13.80;93.00;;;;;;5128902;27;20076;-69
2021/10/04 18:48:49;;;;;;;4.10;1.10;;;13.80;92.80;;;;;;5127816;27;20040;-70
2021/10/04 18:51:14;;;;;;;3.87;1.30;;;13.90;92.60;;;;;;5127566;27;20191;-68
2021/10/04 18:53:40;;;;;;;6.70;2.10;;;13.90;92.50;;;;;;5126945;27;20043;-69
2021/10/04 18:56:06;;;;;;;2.77;2.03;;;13.90;92.40;;;;;;5144974;27;20043;-71
2021/10/04 18:58:32;;;;;;;9.67;1.60;;;14.00;92.30;;;;;;5148954;27;20053;-71
2021/10/04 19:00:58;;;;;;;7.60;1.17;;;14.00;92.20;;;;;;5128199;28;20411;-74
2021/10/04 19:03:23;;;;;;;4.07;1.00;;;14.10;92.10;;;;;;5126385;27;20047;-69
2021/10/04 19:05:49;;;;;;;3.97;0.97;;;14.10;92.00;;;;;;5128306;27;20386;-70
2021/10/04 19:08:15;;;;;;;6.53;1.50;;;14.10;92.00;;;;;;5126970;28;20053;-73
2021/10/04 19:10:41;;;;;;;4.73;1.40;;;14.00;91.90;;;;;;5125937;28;20054;-71
2021/10/04 19:13:06;;;;;;;5.33;1.30;;;14.10;91.90;;;;;;5126739;28;20415;-69
2021/10/04 19:15:33;;;;;;;2.93;1.30;;;14.10;92.00;;;;;;5126771;27;20051;-76
2021/10/04 19:17:59;;;;;;;3.23;1.10;;;14.00;91.80;;;;;;5126724;28;20451;-75
2021/10/04 19:20:24;;;;;;;5.23;1.43;;;14.00;91.90;;;;;;5126854;28;20032;-73
2021/10/04 19:22:56;;;;;;;4.93;1.33;;;14.00;91.90;;;;;;5127678;27;20039;-78
2021/10/04 19:25:23;;;;;;;3.87;1.10;;;14.00;91.90;;;;;;5118124;28;20048;-72
2021/10/04 19:27:49;;;;;;;5.63;1.33;;;13.90;91.90;;;;;;5113594;28;20452;-75
2021/10/04 19:30:16;;;;;;;6.20;1.27;;;13.90;91.90;;;;;;5113062;28;20054;-78
2021/10/04 19:32:42;;;;;;;3.17;1.40;;;13.80;92.00;;;;;;5113286;28;20031;-78
2021/10/04 20:04:24;;;;;;;7.80;1.43;;;13.20;91.70;;;;;;5114884;27;20398;-78
2021/10/04 20:06:51;;;;;;;3.27;1.07;;;13.20;91.50;;;;;;5127250;28;20043;-79
2021/10/04 20:09:16;;;;;;;5.03;1.53;;;13.10;91.90;;;;;;5128193;27;20046;-81
2021/10/04 20:11:42;;;;;;;7.17;1.20;;;13.10;92.30;;;;;;5127522;28;20039;-77
2021/10/04 20:14:08;;;;;;;7.17;2.13;;;13.10;92.60;;;;;;5115434;28;20109;-68
2021/10/04 20:16:34;;;;;;;6.93;1.17;;;13.20;92.80;;;;;;5044441;28;20105;-68
2021/10/04 20:19:00;;;;;;;6.63;1.27;;;13.20;92.90;;;;;;5044419;28;20500;-69
2021/10/04 20:21:27;;;;;;;5.27;1.13;;;13.20;92.90;;;;;;5044298;28;20041;-69
2021/10/04 20:23:59;;;;;;;7.93;1.40;;;13.30;92.80;;;;;;5044292;28;20053;-68
2021/10/04 20:26:25;;;;;;;4.37;1.40;;;13.30;92.80;;;;;;5044130;28;20045;-68
2021/10/04 20:28:50;;;;;;;6.53;1.20;;;13.30;92.80;;;;;;5043648;28;20056;-68
2021/10/04 20:31:16;;;;;;;4.30;1.20;;;13.30;92.70;;;;;;5044740;28;20048;-69
2021/10/04 20:33:41;;;;;;;5.47;1.17;;;13.30;92.70;;;;;;5043809;28;20230;-69
2021/10/04 20:36:09;;;;;;;5.43;1.40;;;13.30;92.60;;;;;;5043916;28;20072;-68
